sensor_id;sensor_type;location;lat;lon;timestamp;pressure;altitude;pressure_sealevel;temperature;humidity
11672;BME280;5892;43.412;24.612;2023-02-13T00:00:22;102001.63;;;1.58;98.36
11672;BME280;5892;43.412;24.612;2023-02-13T00:02:49;102007.25;;;1.56;98.26
11672;BME280;5892;43.412;24.612;2023-02-13T00:05:16;102016.41;;;1.62;98.30
11672;BME280;5892;43.412;24.612;2023-02-13T00:07:45;101998.09;;;1.57;98.38
11672;BME280;5892;43.412;24.612;2023-02-13T00:10:13;102013.47;;;1.70;98.44
11672;BME280;5892;43.412;24.612;2023-02-13T00:12:40;102012.63;;;1.69;97.88
11672;BME280;5892;43.412;24.612;2023-02-13T00:15:08;102018.44;;;1.80;97.80
11672;BME280;5892;43.412;24.612;2023-02-13T00:17:35;102029.25;;;1.73;98.22
11672;BME280;5892;43.412;24.612;2023-02-13T00:20:03;102035.09;;;1.63;98.23
11672;BME280;5892;43.412;24.612;2023-02-13T00:22:34;102035.28;;;1.68;98.25
11672;BME280;5892;43.412;24.612;2023-02-13T00:25:01;102030.91;;;1.81;97.83
11672;BME280;5892;43.412;24.612;2023-02-13T00:27:30;101994.34;;;1.58;97.25
11672;BME280;5892;43.412;24.612;2023-02-13T00:29:57;102032.78;;;1.80;97.47
11672;BME280;5892;43.412;24.612;2023-02-13T00:32:24;102030.47;;;1.84;97.54
11672;BME280;5892;43.412;24.612;2023-02-13T00:34:51;102040.69;;;1.82;97.27
11672;BME280;5892;43.412;24.612;2023-02-13T00:37:18;102031.34;;;1.71;97.37
11672;BME280;5892;43.412;24.612;2023-02-13T00:39:45;102031.75;;;1.75;97.58
11672;BME280;5892;43.412;24.612;2023-02-13T00:42:12;102035.91;;;1.70;97.78
11672;BME280;5892;43.412;24.612;2023-02-13T00:44:40;102033.63;;;1.74;98.15
11672;BME280;5892;43.412;24.612;2023-02-13T00:47:07;102041.13;;;1.72;98.50
11672;BME280;5892;43.412;24.612;2023-02-13T00:49:34;102013.69;;;1.55;98.62
11672;BME280;5892;43.412;24.612;2023-02-13T00:52:01;102009.34;;;1.48;99.02
11672;BME280;5892;43.412;24.612;2023-02-13T00:54:28;102039.69;;;1.56;99.63
11672;BME280;5892;43.412;24.612;2023-02-13T00:56:55;102040.72;;;1.62;99.62
11672;BME280;5892;43.412;24.612;2023-02-13T00:59:22;102045.47;;;1.73;98.91
11672;BME280;5892;43.412;24.612;2023-02-13T01:01:51;102041.97;;;1.66;98.69
11672;BME280;5892;43.412;24.612;2023-02-13T01:04:18;102047.13;;;1.74;98.78
11672;BME280;5892;43.412;24.612;2023-02-13T01:06:45;102028.44;;;1.66;98.92
11672;BME280;5892;43.412;24.612;2023-02-13T01:09:12;101892.03;;;0.78;98.93
11672;BME280;5892;43.412;24.612;2023-02-13T01:11:38;102017.00;;;1.57;98.74
11672;BME280;5892;43.412;24.612;2023-02-13T01:14:05;102038.63;;;1.64;98.89
11672;BME280;5892;43.412;24.612;2023-02-13T01:16:32;102014.97;;;1.46;99.08
11672;BME280;5892;43.412;24.612;2023-02-13T01:19:00;102040.50;;;1.63;99.57
11672;BME280;5892;43.412;24.612;2023-02-13T01:21:30;102035.91;;;1.57;99.69
11672;BME280;5892;43.412;24.612;2023-02-13T01:23:57;102037.19;;;1.42;100.00
11672;BME280;5892;43.412;24.612;2023-02-13T01:26:24;102043.22;;;1.44;100.00
11672;BME280;5892;43.412;24.612;2023-02-13T01:28:51;101966.53;;;1.05;100.00
11672;BME280;5892;43.412;24.612;2023-02-13T01:31:19;102036.56;;;1.40;100.00
11672;BME280;5892;43.412;24.612;2023-02-13T01:33:46;102043.44;;;1.36;100.00
11672;BME280;5892;43.412;24.612;2023-02-13T01:36:15;102038.44;;;1.33;100.00
11672;BME280;5892;43.412;24.612;2023-02-13T01:38:42;101993.56;;;0.99;100.00
11672;BME280;5892;43.412;24.612;2023-02-13T01:41:09;102017.44;;;1.35;100.00
11672;BME280;5892;43.412;24.612;2023-02-13T01:43:45;102019.94;;;1.30;100.00
11672;BME280;5892;43.412;24.612;2023-02-13T01:46:15;102025.31;;;1.16;100.00
11672;BME280;5892;43.412;24.612;2023-02-13T01:48:43;101999.38;;;1.02;100.00
11672;BME280;5892;43.412;24.612;2023-02-13T01:51:15;102001.03;;;1.03;100.00
11672;BME280;5892;43.412;24.612;2023-02-13T01:53:45;102014.31;;;0.98;100.00
11672;BME280;5892;43.412;24.612;2023-02-13T01:56:19;102012.66;;;0.97;100.00
11672;BME280;5892;43.412;24.612;2023-02-13T01:58:50;102015.13;;;0.92;100.00
11672;BME280;5892;43.412;24.612;2023-02-13T02:01:18;101990.81;;;0.79;100.00
11672;BME280;5892;43.412;24.612;2023-02-13T02:03:50;101972.69;;;0.53;100.00
11672;BME280;5892;43.412;24.612;2023-02-13T02:06:24;102003.28;;;0.80;100.00
11672;BME280;5892;43.412;24.612;2023-02-13T02:08:54;102030.69;;;0.83;100.00
11672;BME280;5892;43.412;24.612;2023-02-13T02:11:30;101994.09;;;0.55;100.00
11672;BME280;5892;43.412;24.612;2023-02-13T02:13:58;102038.56;;;0.72;100.00
11672;BME280;5892;43.412;24.612;2023-02-13T02:16:27;102031.03;;;0.61;100.00
11672;BME280;5892;43.412;24.612;2023-02-13T02:18:54;102037.88;;;0.57;100.00
11672;BME280;5892;43.412;24.612;2023-02-13T02:22:00;102031.03;;;0.61;100.00
11672;BME280;5892;43.412;24.612;2023-02-13T02:24:52;102030.41;;;0.59;100.00
11672;BME280;5892;43.412;24.612;2023-02-13T02:33:47;102025.38;;;0.36;100.00
11672;BME280;5892;43.412;24.612;2023-02-13T02:36:32;102012.03;;;0.28;100.00
11672;BME280;5892;43.412;24.612;2023-02-13T02:39:11;102029.47;;;0.25;100.00
11672;BME280;5892;43.412;24.612;2023-02-13T02:41:53;102022.81;;;0.28;100.00
11672;BME280;5892;43.412;24.612;2023-02-13T02:44:31;102021.81;;;0.29;100.00
11672;BME280;5892;43.412;24.612;2023-02-13T02:47:07;102004.97;;;0.20;100.00
11672;BME280;5892;43.412;24.612;2023-02-13T02:50:00;102007.25;;;0.23;100.00
11672;BME280;5892;43.412;24.612;2023-02-13T02:52:42;102006.22;;;0.24;100.00
11672;BME280;5892;43.412;24.612;2023-02-13T02:55:20;102005.78;;;0.14;100.00
11672;BME280;5892;43.412;24.612;2023-02-13T02:57:59;101997.69;;;0.14;100.00
11672;BME280;5892;43.412;24.612;2023-02-13T03:00:54;101997.03;;;0.12;100.00
11672;BME280;5892;43.412;24.612;2023-02-13T03:03:39;102006.56;;;0.08;100.00
11672;BME280;5892;43.412;24.612;2023-02-13T03:06:29;102001.13;;;0.02;100.00
11672;BME280;5892;43.412;24.612;2023-02-13T03:09:00;102007.78;;;-0.01;100.00
11672;BME280;5892;43.412;24.612;2023-02-13T03:11:49;102005.22;;;-0.09;100.00
11672;BME280;5892;43.412;24.612;2023-02-13T03:14:35;102001.69;;;-0.16;100.00
11672;BME280;5892;43.412;24.612;2023-02-13T03:17:03;102015.28;;;-0.24;100.00
11672;BME280;5892;43.412;24.612;2023-02-13T03:19:57;101989.97;;;-0.30;100.00
11672;BME280;5892;43.412;24.612;2023-02-13T03:22:58;102003.50;;;-0.23;100.00
11672;BME280;5892;43.412;24.612;2023-02-13T03:25:29;101997.22;;;-0.30;100.00
11672;BME280;5892;43.412;24.612;2023-02-13T03:28:08;101947.84;;;-0.72;100.00
11672;BME280;5892;43.412;24.612;2023-02-13T03:31:03;102006.31;;;-0.31;100.00
11672;BME280;5892;43.412;24.612;2023-02-13T03:33:52;102015.84;;;-0.35;100.00
11672;BME280;5892;43.412;24.612;2023-02-13T03:36:30;101986.13;;;-0.49;100.00
11672;BME280;5892;43.412;24.612;2023-02-13T03:39:22;102014.16;;;-0.36;100.00
11672;BME280;5892;43.412;24.612;2023-02-13T03:41:53;102012.53;;;-0.37;100.00
11672;BME280;5892;43.412;24.612;2023-02-13T03:44:26;101962.97;;;-0.71;100.00
11672;BME280;5892;43.412;24.612;2023-02-13T03:46:58;102013.31;;;-0.44;100.00
11672;BME280;5892;43.412;24.612;2023-02-13T03:49:29;102014.28;;;-0.51;100.00
11672;BME280;5892;43.412;24.612;2023-02-13T03:52:19;102010.13;;;-0.54;100.00
11672;BME280;5892;43.412;24.612;2023-02-13T03:54:52;102013.41;;;-0.58;100.00
11672;BME280;5892;43.412;24.612;2023-02-13T03:57:38;102012.72;;;-0.67;100.00
11672;BME280;5892;43.412;24.612;2023-02-13T04:00:24;102013.63;;;-0.81;100.00
11672;BME280;5892;43.412;24.612;2023-02-13T04:03:04;101992.44;;;-0.91;100.00
11672;BME280;5892;43.412;24.612;2023-02-13T04:05:38;102022.97;;;-0.77;100.00
11672;BME280;5892;43.412;24.612;2023-02-13T04:08:06;102027.59;;;-0.71;100.00
11672;BME280;5892;43.412;24.612;2023-02-13T04:10:36;102023.88;;;-0.70;100.00
11672;BME280;5892;43.412;24.612;2023-02-13T04:13:12;102030.94;;;-0.69;100.00
11672;BME280;5892;43.412;24.612;2023-02-13T04:15:42;101978.84;;;-1.04;100.00
11672;BME280;5892;43.412;24.612;2023-02-13T04:18:15;102024.50;;;-0.68;100.00
11672;BME280;5892;43.412;24.612;2023-02-13T04:20:43;102013.00;;;-0.83;100.00
11672;BME280;5892;43.412;24.612;2023-02-13T04:23:11;102018.84;;;-0.79;100.00
11672;BME280;5892;43.412;24.612;2023-02-13T04:25:41;102022.53;;;-0.80;100.00
11672;BME280;5892;43.412;24.612;2023-02-13T04:28:09;102029.53;;;-0.86;100.00
11672;BME280;5892;43.412;24.612;2023-02-13T04:30:36;102016.78;;;-0.99;100.00
11672;BME280;5892;43.412;24.612;2023-02-13T04:33:03;102029.94;;;-0.89;100.00
11672;BME280;5892;43.412;24.612;2023-02-13T04:35:32;102027.88;;;-0.87;100.00
11672;BME280;5892;43.412;24.612;2023-02-13T04:37:59;102003.72;;;-1.02;100.00
11672;BME280;5892;43.412;24.612;2023-02-13T04:40:26;101970.75;;;-1.32;100.00
11672;BME280;5892;43.412;24.612;2023-02-13T04:42:55;102025.31;;;-0.95;100.00
11672;BME280;5892;43.412;24.612;2023-02-13T04:45:22;102019.03;;;-1.02;100.00
11672;BME280;5892;43.412;24.612;2023-02-13T04:47:49;102036.84;;;-1.01;100.00
11672;BME280;5892;43.412;24.612;2023-02-13T04:50:17;102031.06;;;-0.98;100.00
11672;BME280;5892;43.412;24.612;2023-02-13T04:52:44;102044.53;;;-0.98;100.00
11672;BME280;5892;43.412;24.612;2023-02-13T04:55:11;102038.81;;;-1.10;100.00
11672;BME280;5892;43.412;24.612;2023-02-13T04:57:38;102049.66;;;-1.03;100.00
11672;BME280;5892;43.412;24.612;2023-02-13T05:00:08;102050.91;;;-0.99;100.00
11672;BME280;5892;43.412;24.612;2023-02-13T05:02:35;102043.00;;;-1.07;100.00
11672;BME280;5892;43.412;24.612;2023-02-13T05:05:02;102000.00;;;-1.43;100.00
11672;BME280;5892;43.412;24.612;2023-02-13T05:07:29;102038.44;;;-1.07;100.00
11672;BME280;5892;43.412;24.612;2023-02-13T05:09:55;101983.78;;;-1.50;100.00
11672;BME280;5892;43.412;24.612;2023-02-13T05:12:23;102054.16;;;-1.10;100.00
11672;BME280;5892;43.412;24.612;2023-02-13T05:14:49;102038.38;;;-1.13;100.00
11672;BME280;5892;43.412;24.612;2023-02-13T05:17:18;102014.88;;;-1.26;100.00
11672;BME280;5892;43.412;24.612;2023-02-13T05:19:45;102062.53;;;-0.99;100.00
11672;BME280;5892;43.412;24.612;2023-02-13T05:22:13;102060.41;;;-1.03;100.00
11672;BME280;5892;43.412;24.612;2023-02-13T05:24:57;102065.16;;;-1.05;100.00
11672;BME280;5892;43.412;24.612;2023-02-13T05:27:24;102049.66;;;-1.03;100.00
11672;BME280;5892;43.412;24.612;2023-02-13T05:29:51;102045.94;;;-1.02;100.00
11672;BME280;5892;43.412;24.612;2023-02-13T05:32:18;101986.97;;;-1.61;100.00
11672;BME280;5892;43.412;24.612;2023-02-13T05:34:45;102064.09;;;-0.90;100.00
11672;BME280;5892;43.412;24.612;2023-02-13T05:37:12;102066.44;;;-0.80;100.00
11672;BME280;5892;43.412;24.612;2023-02-13T05:39:39;102043.00;;;-0.86;100.00
11672;BME280;5892;43.412;24.612;2023-02-13T05:42:06;102068.22;;;-0.66;100.00
11672;BME280;5892;43.412;24.612;2023-02-13T05:44:33;102075.53;;;-0.60;100.00
11672;BME280;5892;43.412;24.612;2023-02-13T05:47:00;102077.44;;;-0.54;100.00
11672;BME280;5892;43.412;24.612;2023-02-13T05:49:28;102089.94;;;-0.46;100.00
11672;BME280;5892;43.412;24.612;2023-02-13T05:51:55;102083.59;;;-0.38;100.00
11672;BME280;5892;43.412;24.612;2023-02-13T05:54:22;102086.00;;;-0.22;100.00
11672;BME280;5892;43.412;24.612;2023-02-13T05:56:49;102088.16;;;-0.11;100.00
11672;BME280;5892;43.412;24.612;2023-02-13T05:59:16;102086.53;;;0.01;100.00
11672;BME280;5892;43.412;24.612;2023-02-13T06:01:43;102089.56;;;0.19;100.00
11672;BME280;5892;43.412;24.612;2023-02-13T06:04:11;102072.28;;;0.07;100.00
11672;BME280;5892;43.412;24.612;2023-02-13T06:06:39;102054.66;;;0.05;100.00
11672;BME280;5892;43.412;24.612;2023-02-13T06:09:06;102100.09;;;0.49;100.00
11672;BME280;5892;43.412;24.612;2023-02-13T06:11:33;102090.78;;;0.51;100.00
11672;BME280;5892;43.412;24.612;2023-02-13T06:14:00;102101.44;;;0.72;100.00
11672;BME280;5892;43.412;24.612;2023-02-13T06:16:26;102107.72;;;0.86;100.00
11672;BME280;5892;43.412;24.612;2023-02-13T06:18:55;102106.09;;;0.98;100.00
11672;BME280;5892;43.412;24.612;2023-02-13T06:21:22;102099.91;;;1.17;100.00
11672;BME280;5892;43.412;24.612;2023-02-13T06:23:50;102106.16;;;1.31;100.00
11672;BME280;5892;43.412;24.612;2023-02-13T06:26:17;102106.38;;;1.49;100.00
11672;BME280;5892;43.412;24.612;2023-02-13T06:28:44;102101.63;;;1.64;100.00
11672;BME280;5892;43.412;24.612;2023-02-13T06:31:11;102112.22;;;1.79;100.00
11672;BME280;5892;43.412;24.612;2023-02-13T06:33:39;102060.44;;;1.69;99.49
11672;BME280;5892;43.412;24.612;2023-02-13T06:36:06;102109.06;;;2.08;97.10
11672;BME280;5892;43.412;24.612;2023-02-13T06:38:34;102107.38;;;2.21;95.92
11672;BME280;5892;43.412;24.612;2023-02-13T06:41:02;102066.22;;;2.12;94.34
11672;BME280;5892;43.412;24.612;2023-02-13T06:43:29;102086.09;;;2.37;93.40
11672;BME280;5892;43.412;24.612;2023-02-13T06:45:56;102067.16;;;2.37;93.25
11672;BME280;5892;43.412;24.612;2023-02-13T06:48:23;102112.97;;;2.83;91.99
11672;BME280;5892;43.412;24.612;2023-02-13T06:50:50;102111.53;;;2.87;91.57
11672;BME280;5892;43.412;24.612;2023-02-13T06:53:17;102112.75;;;2.91;90.40
11672;BME280;5892;43.412;24.612;2023-02-13T06:55:49;102114.31;;;3.12;89.28
11672;BME280;5892;43.412;24.612;2023-02-13T06:58:17;102098.41;;;3.22;89.18
11672;BME280;5892;43.412;24.612;2023-02-13T07:00:44;102109.59;;;3.32;88.21
11672;BME280;5892;43.412;24.612;2023-02-13T07:03:11;102043.13;;;2.98;87.29
11672;BME280;5892;43.412;24.612;2023-02-13T07:05:39;102112.78;;;3.54;86.32
11672;BME280;5892;43.412;24.612;2023-02-13T07:08:07;102119.59;;;3.63;86.49
11672;BME280;5892;43.412;24.612;2023-02-13T07:10:36;102093.63;;;3.74;86.01
11672;BME280;5892;43.412;24.612;2023-02-13T07:13:03;102112.59;;;3.99;86.61
11672;BME280;5892;43.412;24.612;2023-02-13T07:15:32;102112.63;;;4.17;86.46
11672;BME280;5892;43.412;24.612;2023-02-13T07:18:01;102050.03;;;3.94;86.26
11672;BME280;5892;43.412;24.612;2023-02-13T07:20:28;102116.28;;;4.47;85.64
11672;BME280;5892;43.412;24.612;2023-02-13T07:22:57;102117.94;;;4.48;86.48
11672;BME280;5892;43.412;24.612;2023-02-13T07:25:25;102115.31;;;4.60;85.61
11672;BME280;5892;43.412;24.612;2023-02-13T07:27:52;102100.13;;;4.71;85.84
11672;BME280;5892;43.412;24.612;2023-02-13T07:30:19;102101.25;;;4.81;84.51
11672;BME280;5892;43.412;24.612;2023-02-13T07:32:47;102090.06;;;4.71;84.01
11672;BME280;5892;43.412;24.612;2023-02-13T07:35:15;102118.94;;;5.02;84.31
11672;BME280;5892;43.412;24.612;2023-02-13T07:37:42;102125.38;;;5.19;83.25
11672;BME280;5892;43.412;24.612;2023-02-13T07:40:10;102108.41;;;5.35;83.04
11672;BME280;5892;43.412;24.612;2023-02-13T07:42:37;102118.97;;;5.43;81.67
11672;BME280;5892;43.412;24.612;2023-02-13T07:45:04;102113.28;;;5.33;81.47
11672;BME280;5892;43.412;24.612;2023-02-13T07:47:32;102119.56;;;5.34;82.76
11672;BME280;5892;43.412;24.612;2023-02-13T07:50:01;102027.50;;;4.96;81.61
11672;BME280;5892;43.412;24.612;2023-02-13T07:52:30;102064.94;;;5.35;80.80
11672;BME280;5892;43.412;24.612;2023-02-13T07:54:57;102113.25;;;5.75;80.83
11672;BME280;5892;43.412;24.612;2023-02-13T07:57:24;102095.03;;;5.64;80.11
11672;BME280;5892;43.412;24.612;2023-02-13T07:59:51;102104.59;;;5.78;80.23
11672;BME280;5892;43.412;24.612;2023-02-13T08:02:19;102111.50;;;6.04;79.80
11672;BME280;5892;43.412;24.612;2023-02-13T08:04:46;102107.50;;;6.06;78.83
11672;BME280;5892;43.412;24.612;2023-02-13T08:07:15;102108.56;;;6.05;78.35
11672;BME280;5892;43.412;24.612;2023-02-13T08:09:43;102085.63;;;6.01;78.20
11672;BME280;5892;43.412;24.612;2023-02-13T08:12:27;102109.16;;;6.19;78.08
11672;BME280;5892;43.412;24.612;2023-02-13T08:14:54;102105.25;;;6.26;77.36
11672;BME280;5892;43.412;24.612;2023-02-13T08:17:22;102076.13;;;6.15;76.69
11672;BME280;5892;43.412;24.612;2023-02-13T08:19:50;102121.22;;;6.34;76.48
11672;BME280;5892;43.412;24.612;2023-02-13T08:22:20;102118.97;;;6.43;75.57
11672;BME280;5892;43.412;24.612;2023-02-13T08:24:47;102113.47;;;6.55;75.88
11672;BME280;5892;43.412;24.612;2023-02-13T08:27:15;102111.38;;;6.45;76.07
11672;BME280;5892;43.412;24.612;2023-02-13T08:29:42;102109.59;;;6.51;75.91
11672;BME280;5892;43.412;24.612;2023-02-13T08:32:08;102109.00;;;6.49;75.11
11672;BME280;5892;43.412;24.612;2023-02-13T08:34:35;102108.41;;;6.58;75.01
11672;BME280;5892;43.412;24.612;2023-02-13T08:37:02;102105.41;;;6.60;75.03
11672;BME280;5892;43.412;24.612;2023-02-13T08:39:31;102098.03;;;6.72;74.55
11672;BME280;5892;43.412;24.612;2023-02-13T08:41:57;102092.13;;;6.75;74.28
11672;BME280;5892;43.412;24.612;2023-02-13T08:44:24;102097.69;;;6.80;74.49
11672;BME280;5892;43.412;24.612;2023-02-13T08:46:52;102116.41;;;6.76;73.85
11672;BME280;5892;43.412;24.612;2023-02-13T08:49:19;102068.41;;;6.75;73.99
11672;BME280;5892;43.412;24.612;2023-02-13T08:51:46;102102.34;;;6.96;73.57
11672;BME280;5892;43.412;24.612;2023-02-13T08:54:13;102102.00;;;6.93;73.81
11672;BME280;5892;43.412;24.612;2023-02-13T08:56:41;102104.19;;;7.07;74.01
11672;BME280;5892;43.412;24.612;2023-02-13T08:59:08;102106.00;;;7.30;72.71
11672;BME280;5892;43.412;24.612;2023-02-13T09:01:35;102108.81;;;7.35;71.28
11672;BME280;5892;43.412;24.612;2023-02-13T09:04:02;102077.81;;;7.24;72.32
11672;BME280;5892;43.412;24.612;2023-02-13T09:06:29;102093.03;;;7.37;71.21
11672;BME280;5892;43.412;24.612;2023-02-13T09:08:56;102092.28;;;7.25;70.86
11672;BME280;5892;43.412;24.612;2023-02-13T09:11:23;102105.75;;;7.32;71.03
11672;BME280;5892;43.412;24.612;2023-02-13T09:13:55;102106.41;;;7.39;70.44
11672;BME280;5892;43.412;24.612;2023-02-13T09:16:22;102088.47;;;7.26;70.26
11672;BME280;5892;43.412;24.612;2023-02-13T09:18:49;102059.03;;;7.11;69.65
11672;BME280;5892;43.412;24.612;2023-02-13T09:21:18;102104.38;;;7.46;69.36
11672;BME280;5892;43.412;24.612;2023-02-13T09:23:45;102095.22;;;7.23;70.13
11672;BME280;5892;43.412;24.612;2023-02-13T09:26:13;102102.44;;;7.30;70.39
11672;BME280;5892;43.412;24.612;2023-02-13T09:28:40;102055.19;;;6.96;69.57
11672;BME280;5892;43.412;24.612;2023-02-13T09:31:10;102092.81;;;7.10;69.98
11672;BME280;5892;43.412;24.612;2023-02-13T09:33:39;102063.06;;;6.80;70.41
11672;BME280;5892;43.412;24.612;2023-02-13T09:36:08;102094.63;;;7.05;70.66
11672;BME280;5892;43.412;24.612;2023-02-13T09:38:35;102069.38;;;7.26;69.40
11672;BME280;5892;43.412;24.612;2023-02-13T09:41:06;102082.13;;;7.37;69.64
11672;BME280;5892;43.412;24.612;2023-02-13T09:43:39;102078.66;;;7.42;68.94
11672;BME280;5892;43.412;24.612;2023-02-13T09:46:12;102087.16;;;7.45;69.11
11672;BME280;5892;43.412;24.612;2023-02-13T09:48:42;102078.06;;;7.40;68.67
11672;BME280;5892;43.412;24.612;2023-02-13T09:51:15;102073.31;;;7.18;69.06
11672;BME280;5892;43.412;24.612;2023-02-13T09:53:49;102069.66;;;7.41;69.09
11672;BME280;5892;43.412;24.612;2023-02-13T09:56:21;102058.59;;;7.48;68.60
11672;BME280;5892;43.412;24.612;2023-02-13T09:58:55;102058.84;;;7.63;68.47
11672;BME280;5892;43.412;24.612;2023-02-13T10:01:29;102041.72;;;7.51;67.33
11672;BME280;5892;43.412;24.612;2023-02-13T10:04:23;102053.69;;;7.50;67.60
11672;BME280;5892;43.412;24.612;2023-02-13T10:06:59;102055.03;;;7.64;67.31
11672;BME280;5892;43.412;24.612;2023-02-13T10:09:36;102050.41;;;7.48;68.31
11672;BME280;5892;43.412;24.612;2023-02-13T10:12:16;102046.19;;;7.57;67.31
11672;BME280;5892;43.412;24.612;2023-02-13T10:14:53;102043.84;;;7.49;68.44
11672;BME280;5892;43.412;24.612;2023-02-13T10:17:30;102042.22;;;7.48;68.21
11672;BME280;5892;43.412;24.612;2023-02-13T10:20:00;102041.13;;;7.49;67.02
11672;BME280;5892;43.412;24.612;2023-02-13T10:22:33;102044.19;;;7.52;67.25
11672;BME280;5892;43.412;24.612;2023-02-13T10:25:03;102030.56;;;7.52;67.36
11672;BME280;5892;43.412;24.612;2023-02-13T10:27:34;102035.81;;;7.59;67.63
11672;BME280;5892;43.412;24.612;2023-02-13T10:30:04;102029.31;;;7.60;68.28
11672;BME280;5892;43.412;24.612;2023-02-13T10:32:43;102018.81;;;7.52;68.29
11672;BME280;5892;43.412;24.612;2023-02-13T10:35:22;102018.38;;;7.60;69.11
11672;BME280;5892;43.412;24.612;2023-02-13T10:37:54;102008.81;;;7.57;68.47
11672;BME280;5892;43.412;24.612;2023-02-13T10:40:26;102008.22;;;7.72;67.74
11672;BME280;5892;43.412;24.612;2023-02-13T10:43:00;102002.53;;;7.74;68.04
11672;BME280;5892;43.412;24.612;2023-02-13T10:45:46;101997.97;;;7.62;69.11
11672;BME280;5892;43.412;24.612;2023-02-13T10:48:32;102006.47;;;7.66;69.38
11672;BME280;5892;43.412;24.612;2023-02-13T10:51:06;101988.94;;;7.79;69.22
11672;BME280;5892;43.412;24.612;2023-02-13T10:53:47;101971.06;;;7.88;68.70
11672;BME280;5892;43.412;24.612;2023-02-13T10:56:24;101993.84;;;7.98;68.22
11672;BME280;5892;43.412;24.612;2023-02-13T10:59:14;101952.09;;;7.59;68.43
11672;BME280;5892;43.412;24.612;2023-02-13T11:01:52;101970.16;;;7.82;67.54
11672;BME280;5892;43.412;24.612;2023-02-13T11:04:22;101980.13;;;7.93;66.68
11672;BME280;5892;43.412;24.612;2023-02-13T11:06:54;101974.41;;;7.73;66.59
11672;BME280;5892;43.412;24.612;2023-02-13T11:09:23;101977.75;;;7.80;66.77
11672;BME280;5892;43.412;24.612;2023-02-13T11:11:51;101979.75;;;8.06;66.80
11672;BME280;5892;43.412;24.612;2023-02-13T11:14:20;101981.22;;;8.14;66.90
11672;BME280;5892;43.412;24.612;2023-02-13T11:16:54;101974.56;;;8.05;67.42
11672;BME280;5892;43.412;24.612;2023-02-13T11:19:28;101975.69;;;7.87;67.86
11672;BME280;5892;43.412;24.612;2023-02-13T11:21:58;101970.19;;;8.04;67.90
11672;BME280;5892;43.412;24.612;2023-02-13T11:24:29;101965.56;;;8.04;68.05
11672;BME280;5892;43.412;24.612;2023-02-13T11:27:01;101936.41;;;7.88;68.23
11672;BME280;5892;43.412;24.612;2023-02-13T11:29:31;101944.06;;;8.13;67.01
11672;BME280;5892;43.412;24.612;2023-02-13T11:32:16;101956.41;;;8.16;66.92
11672;BME280;5892;43.412;24.612;2023-02-13T11:34:45;101953.88;;;8.31;66.09
11672;BME280;5892;43.412;24.612;2023-02-13T11:37:44;101943.94;;;8.25;66.39
11672;BME280;5892;43.412;24.612;2023-02-13T11:40:28;101942.13;;;8.08;66.42
11672;BME280;5892;43.412;24.612;2023-02-13T11:42:56;101939.63;;;8.07;66.66
11672;BME280;5892;43.412;24.612;2023-02-13T11:45:24;101937.91;;;8.01;66.31
11672;BME280;5892;43.412;24.612;2023-02-13T11:47:53;101940.78;;;7.89;68.13
11672;BME280;5892;43.412;24.612;2023-02-13T11:50:26;101933.78;;;7.98;67.63
11672;BME280;5892;43.412;24.612;2023-02-13T11:52:55;101929.94;;;7.94;68.19
11672;BME280;5892;43.412;24.612;2023-02-13T11:55:27;101927.81;;;8.01;68.14
11672;BME280;5892;43.412;24.612;2023-02-13T11:57:57;101923.41;;;7.95;68.35
11672;BME280;5892;43.412;24.612;2023-02-13T12:00:30;101919.91;;;8.00;67.99
11672;BME280;5892;43.412;24.612;2023-02-13T12:03:02;101909.66;;;8.12;66.65
11672;BME280;5892;43.412;24.612;2023-02-13T12:06:03;101879.69;;;8.17;66.51
11672;BME280;5892;43.412;24.612;2023-02-13T12:08:33;101914.31;;;8.33;65.87
11672;BME280;5892;43.412;24.612;2023-02-13T12:11:02;101881.44;;;8.28;64.67
11672;BME280;5892;43.412;24.612;2023-02-13T12:13:32;101905.66;;;8.20;64.91
11672;BME280;5892;43.412;24.612;2023-02-13T12:16:04;101903.41;;;8.17;65.15
11672;BME280;5892;43.412;24.612;2023-02-13T12:18:39;101895.06;;;8.01;64.85
11672;BME280;5892;43.412;24.612;2023-02-13T12:21:24;101886.63;;;8.03;64.75
11672;BME280;5892;43.412;24.612;2023-02-13T12:24:00;101885.06;;;8.12;65.30
11672;BME280;5892;43.412;24.612;2023-02-13T12:26:32;101872.84;;;8.15;65.81
11672;BME280;5892;43.412;24.612;2023-02-13T12:32:03;101891.06;;;8.31;64.59
11672;BME280;5892;43.412;24.612;2023-02-13T12:34:59;101883.41;;;8.33;64.79
11672;BME280;5892;43.412;24.612;2023-02-13T12:37:49;101875.91;;;8.23;64.71
11672;BME280;5892;43.412;24.612;2023-02-13T12:40:35;101877.06;;;8.27;64.46
11672;BME280;5892;43.412;24.612;2023-02-13T12:43:36;101882.47;;;8.22;64.62
11672;BME280;5892;43.412;24.612;2023-02-13T12:46:14;101861.38;;;8.18;65.32
11672;BME280;5892;43.412;24.612;2023-02-13T12:48:49;101865.34;;;8.27;64.91
11672;BME280;5892;43.412;24.612;2023-02-13T12:51:35;101867.69;;;8.18;64.95
11672;BME280;5892;43.412;24.612;2023-02-13T12:54:24;101867.19;;;8.21;64.59
11672;BME280;5892;43.412;24.612;2023-02-13T12:57:06;101865.81;;;8.24;64.16
11672;BME280;5892;43.412;24.612;2023-02-13T12:59:46;101855.84;;;8.34;63.46
11672;BME280;5892;43.412;24.612;2023-02-13T13:05:31;101853.56;;;7.99;65.23
11672;BME280;5892;43.412;24.612;2023-02-13T13:08:24;101812.16;;;7.86;65.32
11672;BME280;5892;43.412;24.612;2023-02-13T13:11:08;101833.97;;;8.07;65.18
11672;BME280;5892;43.412;24.612;2023-02-13T13:13:49;101838.41;;;8.14;65.21
11672;BME280;5892;43.412;24.612;2023-02-13T13:16:24;101826.25;;;7.99;64.81
11672;BME280;5892;43.412;24.612;2023-02-13T13:19:00;101835.16;;;8.17;64.77
11672;BME280;5892;43.412;24.612;2023-02-13T13:21:38;101837.28;;;8.09;64.28
11672;BME280;5892;43.412;24.612;2023-02-13T13:24:17;101838.25;;;7.98;64.70
11672;BME280;5892;43.412;24.612;2023-02-13T13:26:49;101832.00;;;8.03;63.93
11672;BME280;5892;43.412;24.612;2023-02-13T13:29:20;101829.03;;;8.04;64.10
11672;BME280;5892;43.412;24.612;2023-02-13T13:31:52;101825.84;;;8.13;63.87